sensor_id;sensor_type;location;lat;lon;timestamp;P1;durP1;ratioP1;P2;durP2;ratioP2
25667;SDS011;18003;-33.830;151.202;2023-11-19T06:02:42;12.13;;;4.05;;
25667;SDS011;18003;-33.830;151.202;2023-11-19T06:05:12;11.65;;;3.58;;
25667;SDS011;18003;-33.830;151.202;2023-11-19T06:07:42;12.45;;;3.55;;
25667;SDS011;18003;-33.830;151.202;2023-11-19T06:10:12;15.38;;;3.50;;
25667;SDS011;18003;-33.830;151.202;2023-11-19T06:12:43;10.68;;;3.75;;
25667;SDS011;18003;-33.830;151.202;2023-11-19T06:15:14;11.83;;;3.40;;
25667;SDS011;18003;-33.830;151.202;2023-11-19T06:17:44;22.80;;;3.62;;
25667;SDS011;18003;-33.830;151.202;2023-11-19T06:20:16;21.73;;;4.30;;
25667;SDS011;18003;-33.830;151.202;2023-11-19T06:22:45;17.15;;;3.83;;
25667;SDS011;18003;-33.830;151.202;2023-11-19T06:25:15;14.00;;;3.60;;
25667;SDS011;18003;-33.830;151.202;2023-11-19T06:27:45;8.73;;;3.37;;
25667;SDS011;18003;-33.830;151.202;2023-11-19T06:30:15;18.40;;;4.58;;
25667;SDS011;18003;-33.830;151.202;2023-11-19T06:32:50;9.90;;;4.00;;
25667;SDS011;18003;-33.830;151.202;2023-11-19T06:35:16;13.05;;;4.35;;
25667;SDS011;18003;-33.830;151.202;2023-11-19T06:37:55;14.05;;;4.35;;
25667;SDS011;18003;-33.830;151.202;2023-11-19T07:18:41;16.35;;;4.50;;
25667;SDS011;18003;-33.830;151.202;2023-11-19T07:21:11;12.05;;;4.47;;
25667;SDS011;18003;-33.830;151.202;2023-11-19T07:23:42;12.80;;;4.47;;
25667;SDS011;18003;-33.830;151.202;2023-11-19T07:26:13;10.88;;;4.37;;
25667;SDS011;18003;-33.830;151.202;2023-11-19T07:28:43;12.95;;;4.40;;
25667;SDS011;18003;-33.830;151.202;2023-11-19T07:31:15;13.78;;;4.08;;
25667;SDS011;18003;-33.830;151.202;2023-11-19T07:33:49;9.83;;;3.90;;
25667;SDS011;18003;-33.830;151.202;2023-11-19T07:36:15;14.55;;;5.10;;
25667;SDS011;18003;-33.830;151.202;2023-11-19T07:38:50;11.12;;;3.87;;
25667;SDS011;18003;-33.830;151.202;2023-11-19T07:41:17;15.65;;;4.60;;
25667;SDS011;18003;-33.830;151.202;2023-11-19T07:43:47;11.43;;;3.77;;
25667;SDS011;18003;-33.830;151.202;2023-11-19T07:46:26;11.80;;;4.30;;
25667;SDS011;18003;-33.830;151.202;2023-11-19T07:48:56;11.05;;;4.03;;
25667;SDS011;18003;-33.830;151.202;2023-11-19T07:51:28;14.10;;;3.92;;
25667;SDS011;18003;-33.830;151.202;2023-11-19T07:53:57;14.90;;;5.20;;
25667;SDS011;18003;-33.830;151.202;2023-11-19T07:56:27;15.63;;;4.45;;
25667;SDS011;18003;-33.830;151.202;2023-11-19T07:58:57;13.10;;;4.10;;
25667;SDS011;18003;-33.830;151.202;2023-11-19T08:01:27;14.38;;;3.85;;
25667;SDS011;18003;-33.830;151.202;2023-11-19T08:06:33;12.18;;;3.85;;
25667;SDS011;18003;-33.830;151.202;2023-11-19T08:11:48;15.13;;;4.62;;
25667;SDS011;18003;-33.830;151.202;2023-11-19T08:14:19;14.93;;;4.62;;
25667;SDS011;18003;-33.830;151.202;2023-11-19T08:16:51;12.43;;;3.65;;
25667;SDS011;18003;-33.830;151.202;2023-11-19T09:52:43;16.55;;;4.58;;
25667;SDS011;18003;-33.830;151.202;2023-11-19T09:55:18;12.45;;;4.22;;
25667;SDS011;18003;-33.830;151.202;2023-11-19T09:57:48;17.32;;;5.25;;
25667;SDS011;18003;-33.830;151.202;2023-11-19T10:43:29;14.63;;;4.47;;
25667;SDS011;18003;-33.830;151.202;2023-11-19T10:46:17;16.80;;;4.67;;
25667;SDS011;18003;-33.830;151.202;2023-11-19T10:48:39;14.07;;;4.72;;
25667;SDS011;18003;-33.830;151.202;2023-11-19T14:08:31;13.00;;;4.75;;
25667;SDS011;18003;-33.830;151.202;2023-11-19T14:11:01;13.53;;;5.40;;
25667;SDS011;18003;-33.830;151.202;2023-11-19T14:13:31;12.55;;;4.97;;
25667;SDS011;18003;-33.830;151.202;2023-11-19T14:16:01;11.20;;;4.60;;
25667;SDS011;18003;-33.830;151.202;2023-11-19T14:18:33;11.57;;;4.20;;
25667;SDS011;18003;-33.830;151.202;2023-11-19T14:23:38;11.88;;;5.03;;
25667;SDS011;18003;-33.830;151.202;2023-11-19T14:26:08;14.55;;;5.10;;
25667;SDS011;18003;-33.830;151.202;2023-11-19T14:28:38;13.00;;;4.60;;
25667;SDS011;18003;-33.830;151.202;2023-11-19T14:31:08;12.58;;;4.12;;
25667;SDS011;18003;-33.830;151.202;2023-11-19T14:33:38;12.20;;;3.95;;
25667;SDS011;18003;-33.830;151.202;2023-11-19T14:36:08;13.53;;;4.50;;
25667;SDS011;18003;-33.830;151.202;2023-11-19T15:39:28;11.50;;;4.35;;
25667;SDS011;18003;-33.830;151.202;2023-11-19T16:21:44;13.83;;;4.67;;
25667;SDS011;18003;-33.830;151.202;2023-11-19T16:24:14;16.70;;;4.78;;
25667;SDS011;18003;-33.830;151.202;2023-11-19T17:00:05;17.85;;;4.40;;
25667;SDS011;18003;-33.830;151.202;2023-11-19T17:02:37;12.65;;;4.30;;
25667;SDS011;18003;-33.830;151.202;2023-11-19T17:05:09;16.12;;;4.50;;
25667;SDS011;18003;-33.830;151.202;2023-11-19T17:07:39;13.70;;;4.07;;
25667;SDS011;18003;-33.830;151.202;2023-11-19T17:10:09;15.35;;;4.62;;
25667;SDS011;18003;-33.830;151.202;2023-11-19T17:12:39;12.98;;;4.28;;
25667;SDS011;18003;-33.830;151.202;2023-11-19T17:15:09;17.15;;;5.15;;
25667;SDS011;18003;-33.830;151.202;2023-11-19T17:17:39;16.82;;;4.40;;
25667;SDS011;18003;-33.830;151.202;2023-11-19T17:20:09;11.70;;;4.00;;
25667;SDS011;18003;-33.830;151.202;2023-11-19T17:22:39;15.00;;;4.13;;
25667;SDS011;18003;-33.830;151.202;2023-11-19T17:25:09;13.53;;;3.80;;
25667;SDS011;18003;-33.830;151.202;2023-11-19T17:27:40;14.78;;;4.60;;
25667;SDS011;18003;-33.830;151.202;2023-11-19T17:30:11;13.93;;;4.42;;
25667;SDS011;18003;-33.830;151.202;2023-11-19T17:32:41;17.00;;;4.53;;
25667;SDS011;18003;-33.830;151.202;2023-11-19T17:35:11;12.63;;;4.40;;
25667;SDS011;18003;-33.830;151.202;2023-11-19T17:37:41;12.85;;;4.70;;
25667;SDS011;18003;-33.830;151.202;2023-11-19T17:40:11;18.98;;;4.30;;
25667;SDS011;18003;-33.830;151.202;2023-11-19T17:42:42;15.10;;;4.80;;
25667;SDS011;18003;-33.830;151.202;2023-11-19T17:45:11;12.82;;;4.55;;
25667;SDS011;18003;-33.830;151.202;2023-11-19T20:11:48;14.68;;;5.15;;
25667;SDS011;18003;-33.830;151.202;2023-11-19T20:24:08;15.85;;;4.92;;
25667;SDS011;18003;-33.830;151.202;2023-11-19T20:26:37;14.47;;;5.47;;
25667;SDS011;18003;-33.830;151.202;2023-11-19T20:29:08;15.98;;;5.67;;
25667;SDS011;18003;-33.830;151.202;2023-11-19T20:31:41;16.97;;;5.28;;
25667;SDS011;18003;-33.830;151.202;2023-11-19T20:34:11;15.32;;;5.47;;
25667;SDS011;18003;-33.830;151.202;2023-11-19T20:36:40;13.20;;;5.50;;
25667;SDS011;18003;-33.830;151.202;2023-11-19T20:39:10;19.30;;;6.37;;
25667;SDS011;18003;-33.830;151.202;2023-11-19T20:41:41;14.28;;;6.47;;
25667;SDS011;18003;-33.830;151.202;2023-11-19T20:44:10;16.90;;;5.30;;
25667;SDS011;18003;-33.830;151.202;2023-11-19T20:46:40;15.15;;;6.20;;
25667;SDS011;18003;-33.830;151.202;2023-11-19T20:49:11;14.45;;;5.08;;
25667;SDS011;18003;-33.830;151.202;2023-11-19T20:51:41;14.87;;;5.65;;
25667;SDS011;18003;-33.830;151.202;2023-11-19T20:54:10;13.83;;;5.20;;
25667;SDS011;18003;-33.830;151.202;2023-11-19T20:56:41;14.13;;;5.10;;
25667;SDS011;18003;-33.830;151.202;2023-11-19T20:59:11;15.50;;;5.60;;
25667;SDS011;18003;-33.830;151.202;2023-11-19T21:01:41;12.80;;;5.00;;
25667;SDS011;18003;-33.830;151.202;2023-11-19T21:04:11;11.60;;;4.70;;
25667;SDS011;18003;-33.830;151.202;2023-11-19T22:34:04;11.57;;;4.92;;
25667;SDS011;18003;-33.830;151.202;2023-11-19T22:36:40;14.07;;;5.65;;
25667;SDS011;18003;-33.830;151.202;2023-11-19T22:41:43;10.43;;;5.15;;
25667;SDS011;18003;-33.830;151.202;2023-11-19T22:44:13;12.13;;;5.30;;
25667;SDS011;18003;-33.830;151.202;2023-11-19T22:46:44;9.03;;;5.10;;
25667;SDS011;18003;-33.830;151.202;2023-11-19T22:49:13;10.00;;;4.72;;
25667;SDS011;18003;-33.830;151.202;2023-11-19T22:51:43;9.73;;;4.95;;
25667;SDS011;18003;-33.830;151.202;2023-11-19T22:54:14;8.98;;;4.42;;
25667;SDS011;18003;-33.830;151.202;2023-11-19T22:56:43;10.58;;;5.12;;
25667;SDS011;18003;-33.830;151.202;2023-11-19T22:59:13;9.75;;;4.87;;
25667;SDS011;18003;-33.830;151.202;2023-11-19T23:01:43;11.63;;;4.72;;
25667;SDS011;18003;-33.830;151.202;2023-11-19T23:04:13;8.95;;;4.50;;
25667;SDS011;18003;-33.830;151.202;2023-11-19T23:06:43;9.33;;;4.40;;
25667;SDS011;18003;-33.830;151.202;2023-11-19T23:09:12;8.18;;;4.60;;
25667;SDS011;18003;-33.830;151.202;2023-11-19T23:11:42;7.00;;;4.10;;
25667;SDS011;18003;-33.830;151.202;2023-11-19T23:14:12;7.97;;;3.87;;
25667;SDS011;18003;-33.830;151.202;2023-11-19T23:16:42;11.43;;;4.97;;
25667;SDS011;18003;-33.830;151.202;2023-11-19T23:19:11;13.22;;;4.70;;
25667;SDS011;18003;-33.830;151.202;2023-11-19T23:21:41;11.38;;;4.95;;
25667;SDS011;18003;-33.830;151.202;2023-11-19T23:24:11;12.75;;;5.72;;
25667;SDS011;18003;-33.830;151.202;2023-11-19T23:26:41;11.18;;;4.65;;
25667;SDS011;18003;-33.830;151.202;2023-11-19T23:29:11;14.20;;;5.20;;
25667;SDS011;18003;-33.830;151.202;2023-11-19T23:31:41;9.20;;;4.95;;
25667;SDS011;18003;-33.830;151.202;2023-11-19T23:34:12;10.70;;;5.30;;
25667;SDS011;18003;-33.830;151.202;2023-11-19T23:36:42;17.40;;;6.17;;
25667;SDS011;18003;-33.830;151.202;2023-11-19T23:39:12;17.65;;;6.47;;
25667;SDS011;18003;-33.830;151.202;2023-11-19T23:41:43;18.23;;;6.33;;
25667;SDS011;18003;-33.830;151.202;2023-11-19T23:44:13;16.63;;;6.07;;
25667;SDS011;18003;-33.830;151.202;2023-11-19T23:46:43;15.00;;;5.25;;
